createdAt,value
2019-03-22T00:00:28.485Z,6.43
2019-03-22T00:03:06.948Z,6.53
2019-03-22T00:05:36.454Z,6.00
2019-03-22T00:08:05.704Z,6.03
2019-03-22T00:10:37.609Z,5.63
2019-03-22T00:13:16.133Z,5.70
2019-03-22T00:15:45.357Z,6.10
2019-03-22T00:18:14.568Z,6.30
2019-03-22T00:20:58.920Z,6.83
2019-03-22T00:23:28.289Z,6.20
2019-03-22T00:25:57.832Z,6.13
2019-03-22T00:28:27.142Z,5.83
2019-03-22T00:31:05.701Z,6.10
2019-03-22T00:33:36.868Z,6.23
2019-03-22T00:36:06.118Z,5.73
2019-03-22T00:38:37.705Z,5.40
2019-03-22T00:41:17.125Z,6.30
2019-03-22T00:43:46.662Z,6.40
2019-03-22T00:46:15.903Z,6.13
2019-03-22T00:48:45.670Z,6.30
2019-03-22T00:51:26.065Z,5.83
2019-03-22T00:53:55.708Z,6.10
2019-03-22T00:56:27.428Z,6.07
2019-03-22T00:58:56.970Z,6.63
2019-03-22T01:01:35.408Z,6.47
2019-03-22T01:04:06.841Z,5.60
2019-03-22T01:06:36.111Z,6.20
2019-03-22T01:09:06.234Z,6.43
2019-03-22T01:11:44.709Z,6.30
2019-03-22T01:14:14.006Z,6.77
2019-03-22T01:16:46.352Z,6.43
2019-03-22T01:19:15.561Z,5.80
2019-03-22T01:21:54.052Z,7.03
2019-03-22T01:24:23.344Z,5.93
2019-03-22T01:26:52.905Z,5.90
2019-03-22T01:29:22.398Z,6.50
2019-03-22T01:32:00.921Z,5.97
2019-03-22T01:34:30.252Z,6.43
2019-03-22T01:36:59.456Z,6.00
2019-03-22T01:39:29.416Z,6.27
2019-03-22T01:42:07.785Z,5.73
2019-03-22T01:44:37.086Z,6.43
2019-03-22T01:47:06.325Z,5.87
2019-03-22T01:49:36.730Z,6.10
2019-03-22T01:52:19.316Z,6.10
2019-03-22T01:54:48.828Z,5.93
2019-03-22T01:57:20.957Z,6.33
2019-03-22T01:59:51.183Z,5.90
2019-03-22T02:02:29.843Z,5.97
2019-03-22T02:04:59.298Z,5.20
2019-03-22T02:07:28.792Z,6.20
2019-03-22T02:10:00.406Z,6.13
2019-03-22T02:12:44.026Z,5.70
2019-03-22T02:15:16.455Z,6.23
2019-03-22T02:17:45.688Z,6.43
2019-03-22T02:20:14.953Z,5.63
2019-03-22T02:22:53.361Z,5.70
2019-03-22T02:25:22.935Z,5.60
2019-03-22T02:28:03.448Z,5.83
2019-03-22T02:30:23.557Z,5.80
2019-03-22T02:33:01.968Z,5.90
2019-03-22T02:35:31.249Z,6.20
2019-03-22T02:38:00.495Z,6.27
2019-03-22T02:40:29.760Z,6.40
2019-03-22T02:43:08.267Z,6.20
2019-03-22T02:45:37.522Z,6.00
2019-03-22T02:48:06.754Z,6.20
2019-03-22T02:50:36.005Z,6.27
2019-03-22T02:53:14.313Z,6.87
2019-03-22T02:55:43.607Z,6.50
2019-03-22T02:58:21.022Z,6.10
2019-03-22T03:00:46.318Z,5.60
2019-03-22T03:03:28.009Z,6.33
2019-03-22T03:05:57.511Z,5.70
2019-03-22T03:08:29.491Z,5.77
2019-03-22T03:10:58.785Z,6.10
2019-03-22T03:13:37.088Z,7.00
2019-03-22T03:16:06.428Z,6.57
2019-03-22T03:18:38.823Z,6.37
2019-03-22T03:21:08.163Z,5.87
2019-03-22T03:23:48.759Z,6.30
2019-03-22T03:26:18.121Z,6.00
2019-03-22T03:28:49.069Z,6.60
2019-03-22T03:31:18.432Z,6.70
2019-03-22T03:33:57.126Z,6.80
2019-03-22T03:36:26.599Z,5.53
2019-03-22T03:38:56.031Z,7.13
2019-03-22T03:41:25.492Z,6.33
2019-03-22T03:44:04.302Z,6.90
2019-03-22T03:46:35.892Z,6.70
2019-03-22T03:49:05.839Z,6.40
2019-03-22T03:51:36.194Z,6.83
2019-03-22T03:54:14.619Z,6.60
2019-03-22T03:56:44.234Z,5.73
2019-03-22T03:59:16.606Z,5.90
2019-03-22T04:01:45.883Z,5.90
2019-03-22T04:04:15.351Z,5.87
2019-03-22T04:06:44.590Z,6.53
2019-03-22T04:09:13.822Z,5.93
2019-03-22T04:11:43.179Z,5.57
2019-03-22T04:14:21.546Z,5.63
2019-03-22T04:16:58.003Z,6.20
2019-03-22T04:19:30.277Z,6.50
2019-03-22T04:21:59.911Z,6.13
2019-03-22T04:24:38.418Z,5.37
2019-03-22T04:27:07.737Z,5.63
2019-03-22T04:29:37.017Z,6.07
2019-03-22T04:32:06.312Z,5.33
2019-03-22T04:34:44.885Z,6.60
2019-03-22T04:37:14.228Z,6.73
2019-03-22T04:39:43.739Z,6.27
2019-03-22T04:42:15.262Z,5.77
2019-03-22T04:44:53.803Z,5.50
2019-03-22T04:47:23.044Z,5.87
2019-03-22T04:49:52.302Z,5.67
2019-03-22T04:52:21.594Z,6.33
2019-03-22T04:55:03.170Z,5.93
2019-03-22T04:57:32.442Z,6.10
2019-03-22T05:00:01.799Z,6.53
2019-03-22T05:02:31.038Z,6.40
2019-03-22T05:05:09.225Z,7.40
2019-03-22T05:07:38.576Z,7.10
2019-03-22T05:10:07.989Z,8.37
2019-03-22T05:12:37.375Z,6.70
2019-03-22T05:15:15.642Z,7.17
2019-03-22T05:17:45.227Z,7.23
2019-03-22T05:22:59.566Z,7.53
2019-03-22T05:28:08.367Z,7.00
2019-03-22T05:31:13.705Z,6.97
2019-03-22T05:36:27.216Z,7.37
2019-03-22T05:39:04.142Z,7.40
2019-03-22T05:41:33.786Z,9.10
2019-03-22T05:44:13.177Z,10.80
2019-03-22T05:46:42.448Z,13.50
2019-03-22T05:49:12.862Z,13.60
2019-03-22T05:51:42.265Z,15.07
2019-03-22T05:54:45.630Z,10.03
2019-03-22T05:57:23.520Z,11.40
2019-03-22T06:00:13.096Z,8.23
2019-03-22T06:02:58.865Z,7.77
2019-03-22T06:12:41.204Z,7.60
2019-03-22T06:15:21.363Z,7.50
2019-03-22T06:18:03.614Z,7.30
2019-03-22T06:21:35.942Z,7.43
2019-03-22T06:24:39.373Z,6.83
2019-03-22T06:30:57.684Z,6.27
2019-03-22T06:33:30.106Z,8.73
2019-03-22T06:36:08.534Z,7.30
2019-03-22T06:38:37.843Z,7.77
2019-03-22T06:41:07.276Z,7.43
2019-03-22T06:43:36.916Z,6.97
2019-03-22T06:46:16.347Z,7.37
2019-03-22T06:48:45.696Z,7.37
2019-03-22T06:51:15.015Z,7.30
2019-03-22T06:53:44.328Z,9.70
2019-03-22T06:56:34.998Z,9.00
2019-03-22T06:59:04.607Z,8.70
2019-03-22T07:01:36.951Z,8.10
2019-03-22T07:04:15.657Z,8.57
2019-03-22T07:06:45.233Z,9.37
2019-03-22T07:09:14.554Z,9.60
2019-03-22T07:11:43.868Z,8.67
2019-03-22T07:14:22.317Z,9.30
2019-03-22T07:16:51.701Z,10.30
2019-03-22T07:19:21.267Z,12.60
2019-03-22T07:21:53.159Z,10.33
2019-03-22T07:24:31.850Z,10.13
2019-03-22T07:27:01.318Z,12.87
2019-03-22T07:29:30.693Z,11.70
2019-03-22T07:32:00.006Z,10.60
2019-03-22T08:34:06.460Z,8.20
2019-03-22T08:36:35.831Z,7.57
2019-03-22T08:39:07.413Z,8.10
2019-03-22T08:41:36.938Z,8.50
2019-03-22T08:44:15.881Z,7.90
2019-03-22T08:46:45.336Z,7.67
2019-03-22T08:49:14.666Z,7.65
2019-03-22T08:51:44.021Z,8.03
2019-03-22T08:54:22.723Z,9.48
2019-03-22T08:56:52.465Z,8.35
2019-03-22T08:59:26.037Z,7.17
2019-03-22T09:02:03.174Z,7.57
2019-03-22T12:12:59.588Z,6.22
2019-03-22T12:18:13.389Z,6.08
2019-03-22T12:20:44.808Z,6.00
2019-03-22T12:31:22.677Z,6.78
2019-03-22T12:33:52.362Z,5.42
2019-03-22T12:40:08.844Z,6.97
2019-03-22T12:42:38.225Z,6.37
2019-03-22T12:48:15.359Z,2.90
2019-03-22T12:50:36.496Z,2.85
2019-03-22T12:53:07.409Z,2.30
2019-03-22T13:06:12.781Z,2.42
2019-03-22T13:08:43.342Z,2.42
2019-03-22T13:11:16.700Z,2.33
2019-03-22T13:13:49.454Z,2.80
2019-03-22T13:16:31.946Z,2.20
2019-03-22T13:19:01.224Z,2.12
2019-03-22T13:21:30.589Z,2.37
2019-03-22T15:16:53.519Z,1.43
2019-03-22T15:19:56.938Z,1.53
2019-03-22T15:22:45.473Z,1.50
2019-03-22T15:25:34.360Z,1.70
2019-03-22T15:28:34.325Z,1.50
2019-03-22T15:31:41.065Z,2.00
2019-03-22T15:35:05.546Z,1.80
2019-03-22T15:38:13.333Z,1.73
2019-03-22T15:41:57.602Z,1.63
2019-03-22T15:44:50.412Z,1.43
2019-03-22T15:50:01.026Z,1.33
2019-03-22T15:53:39.450Z,1.53
2019-03-22T16:00:20.164Z,1.80
2019-03-22T16:03:32.404Z,1.70
2019-03-22T16:06:46.434Z,2.00
2019-03-22T17:07:34.583Z,2.30
2019-03-22T17:10:04.139Z,2.30
2019-03-22T17:16:06.070Z,2.53
2019-03-22T17:18:48.838Z,2.27
2019-03-22T17:21:18.177Z,2.40
2019-03-22T17:23:47.553Z,2.40
2019-03-22T17:26:16.988Z,2.30
2019-03-22T17:28:56.465Z,2.83
2019-03-22T17:31:26.179Z,2.67
2019-03-22T17:33:57.909Z,2.47
2019-03-22T17:36:32.224Z,2.30
2019-03-22T17:39:11.734Z,2.30
2019-03-22T17:41:44.298Z,2.70
2019-03-22T17:44:16.051Z,2.90
2019-03-22T17:46:45.425Z,2.33
2019-03-22T17:49:23.818Z,2.23
2019-03-22T17:51:53.186Z,2.20
2019-03-22T17:54:22.508Z,2.13
2019-03-22T17:56:51.744Z,2.30
2019-03-22T17:59:31.529Z,2.37
2019-03-22T18:02:07.638Z,2.27
2019-03-22T18:20:02.143Z,7.70
2019-03-22T18:22:33.753Z,6.37
2019-03-22T18:31:12.840Z,4.83
2019-03-22T18:33:43.254Z,4.30
2019-03-22T18:36:14.718Z,4.33
2019-03-22T18:39:01.427Z,4.73
2019-03-22T18:41:32.038Z,3.70
2019-03-22T18:44:01.309Z,3.93
2019-03-22T18:46:30.853Z,3.30
2019-03-22T18:49:14.572Z,3.03
2019-03-22T18:51:44.787Z,3.00
2019-03-22T18:54:14.336Z,2.90
2019-03-22T18:56:45.780Z,3.10
2019-03-22T18:59:36.541Z,2.73
2019-03-22T19:02:01.890Z,2.40
2019-03-22T19:04:45.593Z,2.80
2019-03-22T19:07:14.937Z,2.33
2019-03-22T19:09:55.721Z,3.20
2019-03-22T19:12:26.762Z,2.90
2019-03-22T19:14:59.298Z,2.73
2019-03-22T19:17:29.201Z,3.20
2019-03-22T19:22:41.620Z,3.40
2019-03-22T19:25:11.313Z,4.23
2019-03-22T19:27:43.693Z,2.93
2019-03-22T19:30:34.971Z,3.57
2019-03-22T19:33:06.390Z,2.70
2019-03-22T19:35:38.266Z,2.80
2019-03-22T19:38:10.896Z,2.87
2019-03-22T19:40:49.409Z,3.10
2019-03-22T19:43:21.744Z,3.13
2019-03-22T19:45:53.114Z,3.43
2019-03-22T19:48:22.394Z,2.80
2019-03-22T19:51:05.393Z,3.17
2019-03-22T19:53:35.329Z,3.53
2019-03-22T19:56:05.519Z,3.10
2019-03-22T19:58:36.511Z,3.17
2019-03-22T20:01:15.245Z,3.63
2019-03-22T20:03:45.618Z,3.23
2019-03-22T20:06:15.511Z,3.43
2019-03-22T20:08:45.052Z,3.53
2019-03-22T20:11:27.063Z,4.10
2019-03-22T20:13:57.946Z,4.03
2019-03-22T20:16:27.256Z,4.57
2019-03-22T20:18:57.525Z,4.07
2019-03-22T20:21:36.090Z,4.67
2019-03-22T20:24:05.378Z,4.47
2019-03-22T20:26:37.943Z,4.80
2019-03-22T20:29:07.310Z,4.90
2019-03-22T20:31:45.797Z,6.00
2019-03-22T20:34:15.166Z,6.33
2019-03-22T20:36:46.077Z,6.07
2019-03-22T20:39:15.352Z,5.77
2019-03-22T20:41:53.869Z,5.17
2019-03-22T20:44:33.424Z,5.80
2019-03-22T20:46:54.137Z,5.77
2019-03-22T20:49:23.691Z,5.70
2019-03-22T20:52:02.251Z,6.13
2019-03-22T20:54:31.561Z,6.10
2019-03-22T20:57:01.084Z,6.40
2019-03-22T20:59:30.382Z,8.33
2019-03-22T21:02:09.062Z,8.83
2019-03-22T21:04:38.670Z,8.37
2019-03-22T21:07:07.932Z,8.73
2019-03-22T21:09:37.226Z,8.97
2019-03-22T21:12:16.756Z,8.47
2019-03-22T21:14:46.715Z,7.80
2019-03-22T21:17:16.350Z,7.43
2019-03-22T21:19:45.692Z,7.10
2019-03-22T21:22:24.566Z,7.07
2019-03-22T21:24:53.975Z,7.23
2019-03-22T21:27:23.253Z,5.93
2019-03-22T21:29:52.511Z,6.27
2019-03-22T21:32:44.428Z,6.23
2019-03-22T21:35:06.663Z,6.70
2019-03-22T21:37:37.794Z,6.37
2019-03-22T21:40:07.183Z,7.20
2019-03-22T21:42:45.812Z,6.67
2019-03-22T21:45:15.060Z,6.20
2019-03-22T21:47:45.054Z,6.30
2019-03-22T21:50:14.428Z,6.77
2019-03-22T21:52:52.829Z,6.70
2019-03-22T21:55:22.100Z,6.30
2019-03-22T21:57:51.398Z,6.63
2019-03-22T22:00:21.369Z,7.00
2019-03-22T22:03:00.081Z,6.60
2019-03-22T22:05:29.873Z,6.43
2019-03-22T22:08:02.203Z,6.27
2019-03-22T22:10:31.483Z,6.40
2019-03-22T22:13:10.361Z,7.73
2019-03-22T22:15:39.627Z,7.37
2019-03-22T22:18:09.162Z,7.13
2019-03-22T22:20:38.431Z,7.20
2019-03-22T22:23:17.142Z,7.30
2019-03-22T22:25:46.426Z,7.07
2019-03-22T22:28:15.685Z,7.50
2019-03-22T22:30:45.139Z,6.50
2019-03-22T22:33:24.058Z,6.50
2019-03-22T22:35:58.732Z,6.77
2019-03-22T22:38:25.044Z,6.70
2019-03-22T22:40:54.618Z,6.43
2019-03-22T22:43:33.989Z,6.87
2019-03-22T22:46:04.329Z,7.30
2019-03-22T22:48:36.504Z,8.00
2019-03-22T22:51:09.053Z,8.27
2019-03-22T22:53:47.621Z,7.73
2019-03-22T22:56:17.145Z,7.40
2019-03-22T22:58:46.713Z,7.57
2019-03-22T23:01:26.763Z,8.83
2019-03-22T23:03:56.268Z,8.13
2019-03-22T23:06:26.092Z,8.30
2019-03-22T23:08:56.116Z,8.73
2019-03-22T23:11:35.888Z,8.63
2019-03-22T23:14:06.656Z,8.33
2019-03-22T23:16:36.193Z,8.93
2019-03-22T23:19:05.725Z,8.87
2019-03-22T23:21:47.227Z,9.67
2019-03-22T23:24:16.755Z,8.87
2019-03-22T23:26:46.592Z,9.67
2019-03-22T23:29:15.837Z,10.23
2019-03-22T23:31:54.272Z,8.37
2019-03-22T23:34:23.499Z,8.33
2019-03-22T23:36:52.861Z,7.53
2019-03-22T23:39:22.087Z,8.37
2019-03-22T23:42:15.127Z,8.23
2019-03-22T23:44:44.430Z,8.83
2019-03-22T23:47:15.267Z,8.33
2019-03-22T23:49:44.779Z,7.87
2019-03-22T23:52:14.444Z,7.40
2019-03-22T23:54:45.772Z,7.60
2019-03-22T23:57:15.297Z,8.27
2019-03-22T23:59:44.802Z,8.13
